sensor_id;sensor_type;location;lat;lon;timestamp;P1;durP1;ratioP1;P2;durP2;ratioP2
21424;SDS011;10873;51.132;16.848;2023-09-19T00:01:32;3.47;;;1.92;;
21424;SDS011;10873;51.132;16.848;2023-09-19T00:04:00;4.72;;;2.20;;
21424;SDS011;10873;51.132;16.848;2023-09-19T00:06:27;4.25;;;2.00;;
21424;SDS011;10873;51.132;16.848;2023-09-19T00:08:57;6.13;;;2.05;;
21424;SDS011;10873;51.132;16.848;2023-09-19T00:11:24;3.97;;;1.73;;
21424;SDS011;10873;51.132;16.848;2023-09-19T00:13:51;4.78;;;2.00;;
21424;SDS011;10873;51.132;16.848;2023-09-19T00:16:17;3.03;;;1.63;;
21424;SDS011;10873;51.132;16.848;2023-09-19T00:18:44;3.80;;;2.00;;
21424;SDS011;10873;51.132;16.848;2023-09-19T00:21:11;4.75;;;1.83;;
21424;SDS011;10873;51.132;16.848;2023-09-19T00:23:38;6.07;;;2.17;;
21424;SDS011;10873;51.132;16.848;2023-09-19T00:26:06;5.50;;;2.30;;
21424;SDS011;10873;51.132;16.848;2023-09-19T00:28:32;4.00;;;1.63;;
21424;SDS011;10873;51.132;16.848;2023-09-19T00:30:58;5.55;;;1.73;;
21424;SDS011;10873;51.132;16.848;2023-09-19T00:33:26;3.10;;;1.50;;
21424;SDS011;10873;51.132;16.848;2023-09-19T00:35:54;3.33;;;1.77;;
21424;SDS011;10873;51.132;16.848;2023-09-19T00:38:24;5.85;;;1.90;;
21424;SDS011;10873;51.132;16.848;2023-09-19T00:40:52;2.90;;;1.63;;
21424;SDS011;10873;51.132;16.848;2023-09-19T00:43:19;5.93;;;1.90;;
21424;SDS011;10873;51.132;16.848;2023-09-19T00:45:46;4.07;;;1.55;;
21424;SDS011;10873;51.132;16.848;2023-09-19T00:48:21;3.22;;;1.50;;
21424;SDS011;10873;51.132;16.848;2023-09-19T00:50:48;4.03;;;1.63;;
21424;SDS011;10873;51.132;16.848;2023-09-19T00:53:15;3.55;;;1.70;;
21424;SDS011;10873;51.132;16.848;2023-09-19T00:55:46;3.28;;;1.65;;
21424;SDS011;10873;51.132;16.848;2023-09-19T00:58:13;3.83;;;1.48;;
21424;SDS011;10873;51.132;16.848;2023-09-19T01:00:39;3.55;;;1.70;;
21424;SDS011;10873;51.132;16.848;2023-09-19T01:03:06;4.13;;;1.67;;
21424;SDS011;10873;51.132;16.848;2023-09-19T01:05:33;3.20;;;1.75;;
21424;SDS011;10873;51.132;16.848;2023-09-19T01:07:59;3.03;;;1.50;;
21424;SDS011;10873;51.132;16.848;2023-09-19T01:10:26;4.07;;;1.70;;
21424;SDS011;10873;51.132;16.848;2023-09-19T01:12:55;3.00;;;1.85;;
21424;SDS011;10873;51.132;16.848;2023-09-19T01:15:32;3.72;;;1.60;;
21424;SDS011;10873;51.132;16.848;2023-09-19T01:18:11;5.40;;;2.28;;
21424;SDS011;10873;51.132;16.848;2023-09-19T01:20:50;4.05;;;1.63;;
21424;SDS011;10873;51.132;16.848;2023-09-19T01:23:23;4.07;;;1.80;;
21424;SDS011;10873;51.132;16.848;2023-09-19T01:26:04;4.50;;;1.60;;
21424;SDS011;10873;51.132;16.848;2023-09-19T01:28:39;2.63;;;1.40;;
21424;SDS011;10873;51.132;16.848;2023-09-19T01:31:20;4.53;;;1.80;;
21424;SDS011;10873;51.132;16.848;2023-09-19T01:33:56;3.47;;;1.80;;
21424;SDS011;10873;51.132;16.848;2023-09-19T01:36:22;2.45;;;1.55;;
21424;SDS011;10873;51.132;16.848;2023-09-19T01:38:49;4.63;;;1.70;;
21424;SDS011;10873;51.132;16.848;2023-09-19T01:41:16;3.65;;;1.70;;
21424;SDS011;10873;51.132;16.848;2023-09-19T01:43:51;4.43;;;1.60;;
21424;SDS011;10873;51.132;16.848;2023-09-19T01:46:18;4.60;;;1.92;;
21424;SDS011;10873;51.132;16.848;2023-09-19T01:48:57;5.28;;;1.58;;
21424;SDS011;10873;51.132;16.848;2023-09-19T01:51:48;3.90;;;1.50;;
21424;SDS011;10873;51.132;16.848;2023-09-19T01:54:26;4.10;;;1.63;;
21424;SDS011;10873;51.132;16.848;2023-09-19T01:57:16;4.25;;;1.67;;
21424;SDS011;10873;51.132;16.848;2023-09-19T01:59:57;3.15;;;1.73;;
21424;SDS011;10873;51.132;16.848;2023-09-19T02:02:33;4.43;;;1.58;;
21424;SDS011;10873;51.132;16.848;2023-09-19T02:05:00;5.00;;;1.35;;
21424;SDS011;10873;51.132;16.848;2023-09-19T02:07:26;4.97;;;1.60;;
21424;SDS011;10873;51.132;16.848;2023-09-19T02:09:52;6.88;;;1.80;;
21424;SDS011;10873;51.132;16.848;2023-09-19T02:12:18;3.28;;;1.70;;
21424;SDS011;10873;51.132;16.848;2023-09-19T02:14:45;4.47;;;1.80;;
21424;SDS011;10873;51.132;16.848;2023-09-19T02:17:11;5.03;;;1.90;;
21424;SDS011;10873;51.132;16.848;2023-09-19T02:19:39;3.67;;;1.63;;
21424;SDS011;10873;51.132;16.848;2023-09-19T02:22:06;3.25;;;1.63;;
21424;SDS011;10873;51.132;16.848;2023-09-19T02:24:33;3.47;;;1.50;;
21424;SDS011;10873;51.132;16.848;2023-09-19T02:26:58;4.65;;;1.55;;
21424;SDS011;10873;51.132;16.848;2023-09-19T02:29:29;3.08;;;1.40;;
21424;SDS011;10873;51.132;16.848;2023-09-19T02:31:55;4.10;;;1.42;;
21424;SDS011;10873;51.132;16.848;2023-09-19T02:34:21;3.33;;;1.30;;
21424;SDS011;10873;51.132;16.848;2023-09-19T02:36:48;2.22;;;1.50;;
21424;SDS011;10873;51.132;16.848;2023-09-19T02:39:15;2.70;;;1.15;;
21424;SDS011;10873;51.132;16.848;2023-09-19T02:41:40;6.40;;;1.40;;
21424;SDS011;10873;51.132;16.848;2023-09-19T02:44:07;4.95;;;1.50;;
21424;SDS011;10873;51.132;16.848;2023-09-19T02:46:33;5.18;;;1.73;;
21424;SDS011;10873;51.132;16.848;2023-09-19T02:48:59;3.28;;;1.40;;
21424;SDS011;10873;51.132;16.848;2023-09-19T02:51:25;5.18;;;1.30;;
21424;SDS011;10873;51.132;16.848;2023-09-19T02:53:52;2.72;;;1.45;;
21424;SDS011;10873;51.132;16.848;2023-09-19T02:56:19;3.22;;;1.55;;
21424;SDS011;10873;51.132;16.848;2023-09-19T02:58:46;5.03;;;1.95;;
21424;SDS011;10873;51.132;16.848;2023-09-19T03:01:13;4.07;;;1.75;;
21424;SDS011;10873;51.132;16.848;2023-09-19T03:03:43;4.40;;;1.45;;
21424;SDS011;10873;51.132;16.848;2023-09-19T03:06:10;4.57;;;1.60;;
21424;SDS011;10873;51.132;16.848;2023-09-19T03:08:38;3.88;;;1.55;;
21424;SDS011;10873;51.132;16.848;2023-09-19T03:11:06;5.97;;;1.42;;
21424;SDS011;10873;51.132;16.848;2023-09-19T03:13:35;5.13;;;1.23;;
21424;SDS011;10873;51.132;16.848;2023-09-19T03:16:03;3.85;;;1.70;;
21424;SDS011;10873;51.132;16.848;2023-09-19T03:18:31;2.75;;;1.50;;
21424;SDS011;10873;51.132;16.848;2023-09-19T03:20:57;2.58;;;1.50;;
21424;SDS011;10873;51.132;16.848;2023-09-19T03:23:26;5.75;;;1.85;;
21424;SDS011;10873;51.132;16.848;2023-09-19T03:25:52;3.35;;;1.60;;
21424;SDS011;10873;51.132;16.848;2023-09-19T03:28:20;2.90;;;1.42;;
21424;SDS011;10873;51.132;16.848;2023-09-19T03:30:56;4.65;;;1.70;;
21424;SDS011;10873;51.132;16.848;2023-09-19T03:33:24;4.60;;;1.50;;
21424;SDS011;10873;51.132;16.848;2023-09-19T03:35:51;3.58;;;1.48;;
21424;SDS011;10873;51.132;16.848;2023-09-19T03:38:18;4.45;;;1.80;;
21424;SDS011;10873;51.132;16.848;2023-09-19T03:40:44;2.70;;;1.35;;
21424;SDS011;10873;51.132;16.848;2023-09-19T03:43:10;3.88;;;1.48;;
21424;SDS011;10873;51.132;16.848;2023-09-19T03:45:38;2.88;;;1.52;;
21424;SDS011;10873;51.132;16.848;2023-09-19T03:48:07;2.50;;;1.40;;
21424;SDS011;10873;51.132;16.848;2023-09-19T03:50:33;4.22;;;1.75;;
21424;SDS011;10873;51.132;16.848;2023-09-19T03:53:00;2.78;;;1.38;;
21424;SDS011;10873;51.132;16.848;2023-09-19T03:55:25;6.75;;;1.60;;
21424;SDS011;10873;51.132;16.848;2023-09-19T03:57:52;5.35;;;1.70;;
21424;SDS011;10873;51.132;16.848;2023-09-19T04:00:18;2.05;;;1.35;;
21424;SDS011;10873;51.132;16.848;2023-09-19T04:02:48;2.22;;;1.38;;
21424;SDS011;10873;51.132;16.848;2023-09-19T04:05:14;2.80;;;1.20;;
21424;SDS011;10873;51.132;16.848;2023-09-19T04:07:40;3.05;;;1.48;;
21424;SDS011;10873;51.132;16.848;2023-09-19T04:10:24;4.40;;;1.67;;
21424;SDS011;10873;51.132;16.848;2023-09-19T04:12:51;2.33;;;1.30;;
21424;SDS011;10873;51.132;16.848;2023-09-19T04:15:18;6.10;;;1.30;;
21424;SDS011;10873;51.132;16.848;2023-09-19T04:17:45;3.00;;;1.20;;
21424;SDS011;10873;51.132;16.848;2023-09-19T04:20:12;3.63;;;1.30;;
21424;SDS011;10873;51.132;16.848;2023-09-19T04:22:39;2.15;;;0.90;;
21424;SDS011;10873;51.132;16.848;2023-09-19T04:25:05;6.65;;;1.25;;
21424;SDS011;10873;51.132;16.848;2023-09-19T04:27:32;2.88;;;1.20;;
21424;SDS011;10873;51.132;16.848;2023-09-19T04:29:58;2.10;;;1.05;;
21424;SDS011;10873;51.132;16.848;2023-09-19T04:32:29;2.78;;;1.08;;
21424;SDS011;10873;51.132;16.848;2023-09-19T04:34:57;2.50;;;1.30;;
21424;SDS011;10873;51.132;16.848;2023-09-19T04:37:27;1.70;;;1.00;;
21424;SDS011;10873;51.132;16.848;2023-09-19T04:39:54;1.45;;;1.10;;
21424;SDS011;10873;51.132;16.848;2023-09-19T04:42:20;5.13;;;1.30;;
21424;SDS011;10873;51.132;16.848;2023-09-19T04:44:47;3.45;;;1.30;;
21424;SDS011;10873;51.132;16.848;2023-09-19T04:47:14;2.25;;;1.25;;
21424;SDS011;10873;51.132;16.848;2023-09-19T04:49:41;4.13;;;1.55;;
21424;SDS011;10873;51.132;16.848;2023-09-19T04:52:07;3.55;;;1.42;;
21424;SDS011;10873;51.132;16.848;2023-09-19T04:54:34;3.75;;;1.63;;
21424;SDS011;10873;51.132;16.848;2023-09-19T04:57:00;6.97;;;2.08;;
21424;SDS011;10873;51.132;16.848;2023-09-19T04:59:27;4.43;;;1.80;;
21424;SDS011;10873;51.132;16.848;2023-09-19T05:01:54;3.78;;;1.58;;
21424;SDS011;10873;51.132;16.848;2023-09-19T05:04:21;2.92;;;1.67;;
21424;SDS011;10873;51.132;16.848;2023-09-19T05:06:47;4.53;;;1.75;;
21424;SDS011;10873;51.132;16.848;2023-09-19T05:09:13;4.88;;;1.85;;
21424;SDS011;10873;51.132;16.848;2023-09-19T05:11:42;3.25;;;1.95;;
21424;SDS011;10873;51.132;16.848;2023-09-19T05:14:09;4.80;;;2.10;;
21424;SDS011;10873;51.132;16.848;2023-09-19T05:16:35;6.20;;;2.08;;
21424;SDS011;10873;51.132;16.848;2023-09-19T05:19:01;2.85;;;1.52;;
21424;SDS011;10873;51.132;16.848;2023-09-19T05:21:27;6.57;;;1.80;;
21424;SDS011;10873;51.132;16.848;2023-09-19T05:23:55;3.95;;;1.70;;
21424;SDS011;10873;51.132;16.848;2023-09-19T05:26:21;8.32;;;1.80;;
21424;SDS011;10873;51.132;16.848;2023-09-19T05:28:49;5.63;;;1.92;;
21424;SDS011;10873;51.132;16.848;2023-09-19T05:31:15;3.72;;;1.60;;
21424;SDS011;10873;51.132;16.848;2023-09-19T05:33:42;5.25;;;1.75;;
21424;SDS011;10873;51.132;16.848;2023-09-19T05:36:08;3.30;;;1.50;;
21424;SDS011;10873;51.132;16.848;2023-09-19T05:38:37;4.40;;;1.83;;
21424;SDS011;10873;51.132;16.848;2023-09-19T05:41:06;3.63;;;1.80;;
21424;SDS011;10873;51.132;16.848;2023-09-19T05:43:40;4.30;;;1.77;;
21424;SDS011;10873;51.132;16.848;2023-09-19T05:46:08;8.18;;;1.98;;
21424;SDS011;10873;51.132;16.848;2023-09-19T05:48:34;4.18;;;1.95;;
21424;SDS011;10873;51.132;16.848;2023-09-19T05:51:00;4.60;;;1.67;;
21424;SDS011;10873;51.132;16.848;2023-09-19T05:53:28;3.65;;;1.83;;
21424;SDS011;10873;51.132;16.848;2023-09-19T05:55:55;5.40;;;1.73;;
21424;SDS011;10873;51.132;16.848;2023-09-19T05:58:21;5.28;;;1.90;;
21424;SDS011;10873;51.132;16.848;2023-09-19T06:00:47;6.03;;;1.80;;
21424;SDS011;10873;51.132;16.848;2023-09-19T06:03:15;8.05;;;2.30;;
21424;SDS011;10873;51.132;16.848;2023-09-19T06:05:43;4.05;;;2.08;;
21424;SDS011;10873;51.132;16.848;2023-09-19T06:08:11;5.55;;;1.88;;
21424;SDS011;10873;51.132;16.848;2023-09-19T06:10:37;5.28;;;2.05;;
21424;SDS011;10873;51.132;16.848;2023-09-19T06:13:03;4.70;;;1.80;;
21424;SDS011;10873;51.132;16.848;2023-09-19T06:15:30;5.65;;;2.00;;
21424;SDS011;10873;51.132;16.848;2023-09-19T06:17:58;3.53;;;1.70;;
21424;SDS011;10873;51.132;16.848;2023-09-19T06:20:26;7.85;;;1.77;;
21424;SDS011;10873;51.132;16.848;2023-09-19T06:22:52;4.50;;;1.80;;
21424;SDS011;10873;51.132;16.848;2023-09-19T06:25:19;6.10;;;2.10;;
21424;SDS011;10873;51.132;16.848;2023-09-19T06:27:45;5.38;;;1.92;;
21424;SDS011;10873;51.132;16.848;2023-09-19T06:30:11;7.90;;;1.85;;
21424;SDS011;10873;51.132;16.848;2023-09-19T06:32:38;6.22;;;1.40;;
21424;SDS011;10873;51.132;16.848;2023-09-19T06:35:05;3.05;;;1.80;;
21424;SDS011;10873;51.132;16.848;2023-09-19T06:37:35;3.70;;;1.85;;
21424;SDS011;10873;51.132;16.848;2023-09-19T06:40:05;4.45;;;1.70;;
21424;SDS011;10873;51.132;16.848;2023-09-19T06:42:32;7.28;;;1.88;;
21424;SDS011;10873;51.132;16.848;2023-09-19T06:44:58;5.10;;;1.60;;
21424;SDS011;10873;51.132;16.848;2023-09-19T06:47:24;4.20;;;1.75;;
21424;SDS011;10873;51.132;16.848;2023-09-19T06:49:51;3.80;;;1.65;;
21424;SDS011;10873;51.132;16.848;2023-09-19T06:52:17;6.32;;;2.22;;
21424;SDS011;10873;51.132;16.848;2023-09-19T06:54:46;4.70;;;1.70;;
21424;SDS011;10873;51.132;16.848;2023-09-19T06:57:12;3.88;;;1.80;;
21424;SDS011;10873;51.132;16.848;2023-09-19T06:59:39;5.30;;;2.03;;
21424;SDS011;10873;51.132;16.848;2023-09-19T07:02:05;2.72;;;1.70;;
21424;SDS011;10873;51.132;16.848;2023-09-19T07:04:31;2.80;;;1.60;;
21424;SDS011;10873;51.132;16.848;2023-09-19T07:06:58;4.35;;;2.10;;
21424;SDS011;10873;51.132;16.848;2023-09-19T07:09:24;4.28;;;1.77;;
21424;SDS011;10873;51.132;16.848;2023-09-19T07:11:53;4.40;;;1.73;;
21424;SDS011;10873;51.132;16.848;2023-09-19T07:14:20;3.90;;;2.05;;
21424;SDS011;10873;51.132;16.848;2023-09-19T07:16:45;3.08;;;1.30;;
21424;SDS011;10873;51.132;16.848;2023-09-19T07:19:13;3.92;;;1.73;;
21424;SDS011;10873;51.132;16.848;2023-09-19T07:21:40;4.55;;;1.65;;
21424;SDS011;10873;51.132;16.848;2023-09-19T07:24:07;4.85;;;1.85;;
21424;SDS011;10873;51.132;16.848;2023-09-19T07:26:34;4.35;;;2.05;;
21424;SDS011;10873;51.132;16.848;2023-09-19T07:29:01;3.42;;;1.58;;
21424;SDS011;10873;51.132;16.848;2023-09-19T07:31:29;3.10;;;1.38;;
21424;SDS011;10873;51.132;16.848;2023-09-19T07:33:56;4.30;;;1.70;;
21424;SDS011;10873;51.132;16.848;2023-09-19T07:36:22;2.00;;;1.30;;
21424;SDS011;10873;51.132;16.848;2023-09-19T07:38:49;3.08;;;1.30;;
21424;SDS011;10873;51.132;16.848;2023-09-19T07:41:15;4.15;;;1.60;;
21424;SDS011;10873;51.132;16.848;2023-09-19T07:43:41;3.90;;;1.52;;
21424;SDS011;10873;51.132;16.848;2023-09-19T07:46:10;3.47;;;1.50;;
21424;SDS011;10873;51.132;16.848;2023-09-19T07:48:37;5.50;;;1.75;;
21424;SDS011;10873;51.132;16.848;2023-09-19T07:51:04;3.08;;;1.40;;
21424;SDS011;10873;51.132;16.848;2023-09-19T07:53:31;3.15;;;1.60;;
21424;SDS011;10873;51.132;16.848;2023-09-19T07:56:03;2.25;;;1.40;;
21424;SDS011;10873;51.132;16.848;2023-09-19T07:58:30;3.78;;;1.50;;
21424;SDS011;10873;51.132;16.848;2023-09-19T08:00:56;4.53;;;1.50;;
21424;SDS011;10873;51.132;16.848;2023-09-19T08:03:29;1.92;;;1.50;;
21424;SDS011;10873;51.132;16.848;2023-09-19T08:05:55;3.80;;;1.48;;
21424;SDS011;10873;51.132;16.848;2023-09-19T08:08:23;3.30;;;1.40;;
21424;SDS011;10873;51.132;16.848;2023-09-19T08:10:52;3.53;;;1.50;;
21424;SDS011;10873;51.132;16.848;2023-09-19T08:13:18;2.13;;;1.30;;
21424;SDS011;10873;51.132;16.848;2023-09-19T08:15:45;3.58;;;1.60;;
21424;SDS011;10873;51.132;16.848;2023-09-19T08:18:11;5.63;;;1.42;;
21424;SDS011;10873;51.132;16.848;2023-09-19T08:20:39;2.50;;;1.48;;
21424;SDS011;10873;51.132;16.848;2023-09-19T08:23:07;3.80;;;1.67;;
21424;SDS011;10873;51.132;16.848;2023-09-19T08:25:34;5.78;;;1.92;;
21424;SDS011;10873;51.132;16.848;2023-09-19T08:28:00;7.68;;;1.50;;
21424;SDS011;10873;51.132;16.848;2023-09-19T08:30:29;2.05;;;1.33;;
21424;SDS011;10873;51.132;16.848;2023-09-19T08:32:56;2.10;;;1.23;;
21424;SDS011;10873;51.132;16.848;2023-09-19T08:35:24;4.63;;;1.67;;
21424;SDS011;10873;51.132;16.848;2023-09-19T08:37:51;5.93;;;1.50;;
21424;SDS011;10873;51.132;16.848;2023-09-19T08:40:17;5.10;;;1.40;;
21424;SDS011;10873;51.132;16.848;2023-09-19T08:42:49;2.92;;;1.40;;
21424;SDS011;10873;51.132;16.848;2023-09-19T08:45:16;2.03;;;1.35;;
21424;SDS011;10873;51.132;16.848;2023-09-19T08:47:53;3.10;;;1.50;;
21424;SDS011;10873;51.132;16.848;2023-09-19T08:50:28;3.50;;;1.55;;
21424;SDS011;10873;51.132;16.848;2023-09-19T08:52:59;3.60;;;1.17;;
21424;SDS011;10873;51.132;16.848;2023-09-19T08:55:27;3.67;;;1.40;;
21424;SDS011;10873;51.132;16.848;2023-09-19T08:57:57;4.35;;;1.60;;
21424;SDS011;10873;51.132;16.848;2023-09-19T09:00:26;2.15;;;1.23;;
21424;SDS011;10873;51.132;16.848;2023-09-19T09:02:52;1.77;;;1.30;;
21424;SDS011;10873;51.132;16.848;2023-09-19T09:05:21;2.15;;;1.40;;
21424;SDS011;10873;51.132;16.848;2023-09-19T09:07:49;3.38;;;1.40;;
21424;SDS011;10873;51.132;16.848;2023-09-19T09:10:18;2.80;;;1.30;;
21424;SDS011;10873;51.132;16.848;2023-09-19T09:12:47;1.65;;;1.05;;
21424;SDS011;10873;51.132;16.848;2023-09-19T09:15:14;3.78;;;1.48;;
21424;SDS011;10873;51.132;16.848;2023-09-19T09:17:42;6.80;;;1.58;;
21424;SDS011;10873;51.132;16.848;2023-09-19T09:20:09;3.15;;;1.52;;
21424;SDS011;10873;51.132;16.848;2023-09-19T09:22:35;3.35;;;1.60;;
21424;SDS011;10873;51.132;16.848;2023-09-19T09:25:05;5.95;;;1.60;;
21424;SDS011;10873;51.132;16.848;2023-09-19T09:27:33;2.42;;;1.15;;
21424;SDS011;10873;51.132;16.848;2023-09-19T09:29:59;3.97;;;1.70;;
21424;SDS011;10873;51.132;16.848;2023-09-19T09:32:26;2.05;;;1.35;;
21424;SDS011;10873;51.132;16.848;2023-09-19T09:34:54;1.77;;;1.23;;
21424;SDS011;10873;51.132;16.848;2023-09-19T09:37:22;2.65;;;1.50;;
21424;SDS011;10873;51.132;16.848;2023-09-19T09:39:50;3.00;;;1.25;;
21424;SDS011;10873;51.132;16.848;2023-09-19T09:42:28;1.42;;;1.27;;
21424;SDS011;10873;51.132;16.848;2023-09-19T09:45:15;1.90;;;1.42;;
21424;SDS011;10873;51.132;16.848;2023-09-19T09:47:43;2.17;;;1.20;;
21424;SDS011;10873;51.132;16.848;2023-09-19T09:50:29;1.45;;;1.30;;
21424;SDS011;10873;51.132;16.848;2023-09-19T09:53:20;2.50;;;1.20;;
21424;SDS011;10873;51.132;16.848;2023-09-19T09:56:00;2.35;;;1.30;;
21424;SDS011;10873;51.132;16.848;2023-09-19T09:58:30;2.17;;;1.30;;
21424;SDS011;10873;51.132;16.848;2023-09-19T10:00:59;3.05;;;1.23;;
21424;SDS011;10873;51.132;16.848;2023-09-19T10:03:31;2.67;;;1.30;;
21424;SDS011;10873;51.132;16.848;2023-09-19T10:06:00;6.43;;;1.50;;
21424;SDS011;10873;51.132;16.848;2023-09-19T10:08:34;3.53;;;1.35;;
21424;SDS011;10873;51.132;16.848;2023-09-19T10:13:44;2.20;;;1.30;;
21424;SDS011;10873;51.132;16.848;2023-09-19T10:16:14;3.22;;;1.30;;
21424;SDS011;10873;51.132;16.848;2023-09-19T10:18:44;3.60;;;1.83;;
21424;SDS011;10873;51.132;16.848;2023-09-19T10:21:12;2.45;;;1.40;;
21424;SDS011;10873;51.132;16.848;2023-09-19T10:23:39;4.35;;;1.50;;
21424;SDS011;10873;51.132;16.848;2023-09-19T10:26:09;1.70;;;1.30;;
21424;SDS011;10873;51.132;16.848;2023-09-19T10:28:36;5.38;;;1.73;;
21424;SDS011;10873;51.132;16.848;2023-09-19T10:31:03;3.10;;;1.40;;
21424;SDS011;10873;51.132;16.848;2023-09-19T10:33:36;2.78;;;1.42;;
21424;SDS011;10873;51.132;16.848;2023-09-19T10:36:03;5.70;;;1.42;;
21424;SDS011;10873;51.132;16.848;2023-09-19T10:38:30;4.72;;;1.42;;
21424;SDS011;10873;51.132;16.848;2023-09-19T10:40:59;4.10;;;1.38;;
21424;SDS011;10873;51.132;16.848;2023-09-19T10:43:28;3.97;;;1.20;;
21424;SDS011;10873;51.132;16.848;2023-09-19T10:45:58;2.92;;;1.40;;
21424;SDS011;10873;51.132;16.848;2023-09-19T10:48:26;2.55;;;1.30;;
21424;SDS011;10873;51.132;16.848;2023-09-19T10:51:04;2.10;;;1.20;;
21424;SDS011;10873;51.132;16.848;2023-09-19T10:53:40;3.28;;;1.40;;
21424;SDS011;10873;51.132;16.848;2023-09-19T10:56:30;2.17;;;1.27;;
21424;SDS011;10873;51.132;16.848;2023-09-19T10:59:10;3.67;;;1.30;;
21424;SDS011;10873;51.132;16.848;2023-09-19T11:01:42;3.30;;;1.35;;
21424;SDS011;10873;51.132;16.848;2023-09-19T11:04:22;1.95;;;1.27;;
21424;SDS011;10873;51.132;16.848;2023-09-19T11:07:04;5.30;;;1.50;;
21424;SDS011;10873;51.132;16.848;2023-09-19T11:09:46;1.52;;;1.10;;
21424;SDS011;10873;51.132;16.848;2023-09-19T11:21:52;2.35;;;1.08;;
21424;SDS011;10873;51.132;16.848;2023-09-19T11:24:29;3.28;;;1.42;;
21424;SDS011;10873;51.132;16.848;2023-09-19T11:29:39;1.58;;;1.00;;
21424;SDS011;10873;51.132;16.848;2023-09-19T11:32:05;3.10;;;1.23;;
21424;SDS011;10873;51.132;16.848;2023-09-19T11:34:39;4.05;;;1.00;;
21424;SDS011;10873;51.132;16.848;2023-09-19T11:40:38;1.90;;;1.13;;
21424;SDS011;10873;51.132;16.848;2023-09-19T11:46:06;2.97;;;1.17;;
21424;SDS011;10873;51.132;16.848;2023-09-19T11:48:32;1.30;;;1.02;;
21424;SDS011;10873;51.132;16.848;2023-09-19T11:51:03;4.97;;;1.15;;
21424;SDS011;10873;51.132;16.848;2023-09-19T11:53:49;1.83;;;1.02;;
21424;SDS011;10873;51.132;16.848;2023-09-19T11:56:19;2.50;;;1.20;;
21424;SDS011;10873;51.132;16.848;2023-09-19T11:58:46;4.03;;;1.50;;
21424;SDS011;10873;51.132;16.848;2023-09-19T12:01:20;1.33;;;0.93;;
21424;SDS011;10873;51.132;16.848;2023-09-19T12:03:52;1.92;;;1.10;;
21424;SDS011;10873;51.132;16.848;2023-09-19T12:06:20;3.17;;;1.10;;
21424;SDS011;10873;51.132;16.848;2023-09-19T12:08:48;5.97;;;1.58;;
21424;SDS011;10873;51.132;16.848;2023-09-19T12:11:15;2.40;;;1.10;;
21424;SDS011;10873;51.132;16.848;2023-09-19T12:13:44;2.60;;;0.90;;
21424;SDS011;10873;51.132;16.848;2023-09-19T12:16:12;2.72;;;1.20;;
21424;SDS011;10873;51.132;16.848;2023-09-19T12:18:41;1.00;;;0.90;;
21424;SDS011;10873;51.132;16.848;2023-09-19T12:21:25;2.95;;;1.10;;
21424;SDS011;10873;51.132;16.848;2023-09-19T12:23:57;3.80;;;1.13;;
21424;SDS011;10873;51.132;16.848;2023-09-19T12:26:24;3.08;;;1.00;;
21424;SDS011;10873;51.132;16.848;2023-09-19T12:28:52;2.20;;;1.17;;
21424;SDS011;10873;51.132;16.848;2023-09-19T12:31:20;4.75;;;0.98;;
21424;SDS011;10873;51.132;16.848;2023-09-19T12:33:46;0.85;;;0.85;;
21424;SDS011;10873;51.132;16.848;2023-09-19T12:36:22;2.13;;;1.30;;
21424;SDS011;10873;51.132;16.848;2023-09-19T12:38:55;3.45;;;1.30;;
21424;SDS011;10873;51.132;16.848;2023-09-19T12:41:21;1.42;;;1.00;;
21424;SDS011;10873;51.132;16.848;2023-09-19T12:43:48;3.05;;;1.30;;
21424;SDS011;10873;51.132;16.848;2023-09-19T12:46:19;2.35;;;1.10;;
21424;SDS011;10873;51.132;16.848;2023-09-19T12:48:46;1.33;;;1.00;;
21424;SDS011;10873;51.132;16.848;2023-09-19T12:51:13;4.75;;;1.23;;
21424;SDS011;10873;51.132;16.848;2023-09-19T12:53:41;3.47;;;1.35;;
21424;SDS011;10873;51.132;16.848;2023-09-19T12:56:13;1.67;;;1.20;;
21424;SDS011;10873;51.132;16.848;2023-09-19T12:58:51;1.40;;;1.00;;
21424;SDS011;10873;51.132;16.848;2023-09-19T13:01:20;1.77;;;0.98;;
21424;SDS011;10873;51.132;16.848;2023-09-19T13:06:41;2.10;;;1.27;;
21424;SDS011;10873;51.132;16.848;2023-09-19T13:09:09;1.77;;;0.90;;
21424;SDS011;10873;51.132;16.848;2023-09-19T13:11:36;1.80;;;0.95;;
21424;SDS011;10873;51.132;16.848;2023-09-19T13:14:15;2.42;;;1.50;;
21424;SDS011;10873;51.132;16.848;2023-09-19T13:16:58;2.97;;;1.00;;
21424;SDS011;10873;51.132;16.848;2023-09-19T13:19:39;1.90;;;1.20;;
21424;SDS011;10873;51.132;16.848;2023-09-19T13:25:08;3.03;;;1.27;;
21424;SDS011;10873;51.132;16.848;2023-09-19T13:27:46;1.73;;;1.20;;
21424;SDS011;10873;51.132;16.848;2023-09-19T13:30:13;2.72;;;1.17;;
21424;SDS011;10873;51.132;16.848;2023-09-19T13:32:41;1.15;;;0.80;;
21424;SDS011;10873;51.132;16.848;2023-09-19T13:35:09;2.20;;;1.10;;
21424;SDS011;10873;51.132;16.848;2023-09-19T13:37:35;1.08;;;0.90;;
21424;SDS011;10873;51.132;16.848;2023-09-19T13:40:04;2.50;;;1.23;;
21424;SDS011;10873;51.132;16.848;2023-09-19T13:42:31;2.08;;;1.00;;
21424;SDS011;10873;51.132;16.848;2023-09-19T13:44:57;1.55;;;1.02;;
21424;SDS011;10873;51.132;16.848;2023-09-19T13:47:23;2.22;;;1.10;;
21424;SDS011;10873;51.132;16.848;2023-09-19T13:49:52;1.90;;;1.38;;
21424;SDS011;10873;51.132;16.848;2023-09-19T13:52:19;2.28;;;1.13;;
21424;SDS011;10873;51.132;16.848;2023-09-19T13:54:45;1.70;;;1.05;;
21424;SDS011;10873;51.132;16.848;2023-09-19T13:57:11;1.60;;;0.98;;
21424;SDS011;10873;51.132;16.848;2023-09-19T13:59:37;1.27;;;0.90;;
21424;SDS011;10873;51.132;16.848;2023-09-19T14:02:04;4.30;;;1.17;;
21424;SDS011;10873;51.132;16.848;2023-09-19T14:04:32;2.55;;;0.85;;
21424;SDS011;10873;51.132;16.848;2023-09-19T14:07:01;1.63;;;1.10;;
21424;SDS011;10873;51.132;16.848;2023-09-19T14:09:28;1.20;;;1.10;;
21424;SDS011;10873;51.132;16.848;2023-09-19T14:11:55;1.73;;;0.98;;
21424;SDS011;10873;51.132;16.848;2023-09-19T14:14:22;2.30;;;1.20;;
21424;SDS011;10873;51.132;16.848;2023-09-19T14:16:48;1.40;;;0.90;;
21424;SDS011;10873;51.132;16.848;2023-09-19T14:19:14;1.13;;;0.90;;
21424;SDS011;10873;51.132;16.848;2023-09-19T14:21:41;3.42;;;1.05;;
21424;SDS011;10873;51.132;16.848;2023-09-19T14:24:09;1.20;;;0.90;;
21424;SDS011;10873;51.132;16.848;2023-09-19T14:26:37;3.70;;;1.10;;
21424;SDS011;10873;51.132;16.848;2023-09-19T14:29:03;1.88;;;1.30;;
21424;SDS011;10873;51.132;16.848;2023-09-19T14:31:30;2.85;;;1.15;;
21424;SDS011;10873;51.132;16.848;2023-09-19T14:33:56;5.22;;;1.25;;
21424;SDS011;10873;51.132;16.848;2023-09-19T14:36:23;3.00;;;1.25;;
21424;SDS011;10873;51.132;16.848;2023-09-19T14:38:52;4.30;;;1.20;;
21424;SDS011;10873;51.132;16.848;2023-09-19T14:41:23;1.45;;;1.08;;
21424;SDS011;10873;51.132;16.848;2023-09-19T14:43:50;2.38;;;1.00;;
21424;SDS011;10873;51.132;16.848;2023-09-19T14:46:17;5.25;;;1.40;;
21424;SDS011;10873;51.132;16.848;2023-09-19T14:48:44;3.67;;;1.33;;
21424;SDS011;10873;51.132;16.848;2023-09-19T14:51:12;2.30;;;1.17;;
21424;SDS011;10873;51.132;16.848;2023-09-19T14:53:39;3.17;;;1.15;;
21424;SDS011;10873;51.132;16.848;2023-09-19T14:56:07;3.30;;;1.20;;
21424;SDS011;10873;51.132;16.848;2023-09-19T14:58:35;2.83;;;1.13;;
21424;SDS011;10873;51.132;16.848;2023-09-19T15:01:04;2.65;;;1.20;;
21424;SDS011;10873;51.132;16.848;2023-09-19T15:03:31;2.42;;;1.05;;
21424;SDS011;10873;51.132;16.848;2023-09-19T15:06:01;4.57;;;0.90;;
21424;SDS011;10873;51.132;16.848;2023-09-19T15:08:27;1.90;;;1.30;;
21424;SDS011;10873;51.132;16.848;2023-09-19T15:10:53;2.63;;;1.42;;